sensor_id;sensor_type;location;lat;lon;timestamp;temperature;humidity
698;DHT22;331;48.414;9.938;2022-11-15T00:01:06;8.50;99.90
698;DHT22;331;48.414;9.938;2022-11-15T00:03:51;8.50;99.90
698;DHT22;331;48.414;9.938;2022-11-15T00:06:37;8.50;99.90
698;DHT22;331;48.414;9.938;2022-11-15T00:09:23;8.50;99.90
698;DHT22;331;48.414;9.938;2022-11-15T00:12:09;8.50;99.90
698;DHT22;331;48.414;9.938;2022-11-15T00:14:54;8.50;99.90
698;DHT22;331;48.414;9.938;2022-11-15T00:17:39;8.50;99.90
698;DHT22;331;48.414;9.938;2022-11-15T00:20:24;8.50;99.90
698;DHT22;331;48.414;9.938;2022-11-15T00:23:10;8.50;99.90
698;DHT22;331;48.414;9.938;2022-11-15T00:25:57;8.40;99.90
698;DHT22;331;48.414;9.938;2022-11-15T00:28:43;8.50;99.90
698;DHT22;331;48.414;9.938;2022-11-15T00:31:28;8.40;99.90
698;DHT22;331;48.414;9.938;2022-11-15T00:34:13;8.40;99.90
698;DHT22;331;48.414;9.938;2022-11-15T00:36:58;8.50;99.90
698;DHT22;331;48.414;9.938;2022-11-15T00:39:44;8.40;99.90
698;DHT22;331;48.414;9.938;2022-11-15T00:42:30;8.40;99.90
698;DHT22;331;48.414;9.938;2022-11-15T00:45:15;8.40;99.90
698;DHT22;331;48.414;9.938;2022-11-15T00:48:01;8.40;99.90
698;DHT22;331;48.414;9.938;2022-11-15T00:50:46;8.40;99.90
698;DHT22;331;48.414;9.938;2022-11-15T00:53:31;8.50;99.90
698;DHT22;331;48.414;9.938;2022-11-15T00:56:16;8.50;99.90
698;DHT22;331;48.414;9.938;2022-11-15T00:59:03;8.40;99.90
698;DHT22;331;48.414;9.938;2022-11-15T01:01:48;8.40;99.90
698;DHT22;331;48.414;9.938;2022-11-15T01:04:33;8.40;99.90
698;DHT22;331;48.414;9.938;2022-11-15T01:07:19;8.40;99.90
698;DHT22;331;48.414;9.938;2022-11-15T01:10:05;8.40;99.90
698;DHT22;331;48.414;9.938;2022-11-15T01:12:51;8.40;99.90
698;DHT22;331;48.414;9.938;2022-11-15T01:15:40;8.40;99.90
698;DHT22;331;48.414;9.938;2022-11-15T01:18:25;8.40;99.90
698;DHT22;331;48.414;9.938;2022-11-15T01:21:11;8.30;99.90
698;DHT22;331;48.414;9.938;2022-11-15T01:23:57;8.40;99.90
698;DHT22;331;48.414;9.938;2022-11-15T01:26:42;8.40;99.90
698;DHT22;331;48.414;9.938;2022-11-15T01:29:28;8.40;99.90
698;DHT22;331;48.414;9.938;2022-11-15T01:32:14;8.40;99.90
698;DHT22;331;48.414;9.938;2022-11-15T01:34:59;8.30;99.90
698;DHT22;331;48.414;9.938;2022-11-15T01:37:45;8.40;99.90
698;DHT22;331;48.414;9.938;2022-11-15T01:40:30;8.30;99.90
698;DHT22;331;48.414;9.938;2022-11-15T01:43:19;8.40;99.90
698;DHT22;331;48.414;9.938;2022-11-15T01:46:06;8.30;99.90
698;DHT22;331;48.414;9.938;2022-11-15T01:48:53;8.30;99.90
698;DHT22;331;48.414;9.938;2022-11-15T01:51:39;8.30;99.90
698;DHT22;331;48.414;9.938;2022-11-15T01:54:25;8.30;99.90
698;DHT22;331;48.414;9.938;2022-11-15T01:57:10;8.30;99.90
698;DHT22;331;48.414;9.938;2022-11-15T01:59:56;8.30;99.90
698;DHT22;331;48.414;9.938;2022-11-15T02:02:42;8.30;99.90
698;DHT22;331;48.414;9.938;2022-11-15T02:05:29;8.30;99.90
698;DHT22;331;48.414;9.938;2022-11-15T02:08:15;8.30;99.90
698;DHT22;331;48.414;9.938;2022-11-15T02:11:04;8.30;99.90
698;DHT22;331;48.414;9.938;2022-11-15T02:13:49;8.20;99.90
698;DHT22;331;48.414;9.938;2022-11-15T02:16:35;8.30;99.90
698;DHT22;331;48.414;9.938;2022-11-15T02:19:28;8.20;99.90
698;DHT22;331;48.414;9.938;2022-11-15T02:22:18;8.30;99.90
698;DHT22;331;48.414;9.938;2022-11-15T02:25:11;8.30;99.90
698;DHT22;331;48.414;9.938;2022-11-15T02:31:05;8.20;99.90
698;DHT22;331;48.414;9.938;2022-11-15T02:33:57;8.30;99.90
698;DHT22;331;48.414;9.938;2022-11-15T02:36:47;8.20;99.90
698;DHT22;331;48.414;9.938;2022-11-15T02:39:34;8.10;99.90
698;DHT22;331;48.414;9.938;2022-11-15T02:42:23;8.10;99.90
698;DHT22;331;48.414;9.938;2022-11-15T02:45:28;8.10;99.90
698;DHT22;331;48.414;9.938;2022-11-15T02:48:16;8.20;99.90
698;DHT22;331;48.414;9.938;2022-11-15T02:51:02;8.10;99.90
698;DHT22;331;48.414;9.938;2022-11-15T02:53:47;8.10;99.90
698;DHT22;331;48.414;9.938;2022-11-15T02:56:33;8.10;99.90
698;DHT22;331;48.414;9.938;2022-11-15T03:02:26;8.10;99.90
698;DHT22;331;48.414;9.938;2022-11-15T03:05:17;8.10;99.90
698;DHT22;331;48.414;9.938;2022-11-15T03:08:05;8.10;99.90
698;DHT22;331;48.414;9.938;2022-11-15T03:10:54;8.10;99.90
698;DHT22;331;48.414;9.938;2022-11-15T03:13:44;8.10;99.90
698;DHT22;331;48.414;9.938;2022-11-15T03:16:33;8.10;99.90
698;DHT22;331;48.414;9.938;2022-11-15T03:19:21;8.10;99.90
698;DHT22;331;48.414;9.938;2022-11-15T03:22:11;8.10;99.90
698;DHT22;331;48.414;9.938;2022-11-15T03:24:58;8.10;99.90
698;DHT22;331;48.414;9.938;2022-11-15T03:27:47;8.00;99.90
698;DHT22;331;48.414;9.938;2022-11-15T03:30:33;8.00;99.90
698;DHT22;331;48.414;9.938;2022-11-15T03:33:19;8.00;99.90
698;DHT22;331;48.414;9.938;2022-11-15T03:36:06;8.00;99.90
698;DHT22;331;48.414;9.938;2022-11-15T03:38:53;8.00;99.90
698;DHT22;331;48.414;9.938;2022-11-15T03:41:40;8.00;99.90
698;DHT22;331;48.414;9.938;2022-11-15T03:44:31;8.00;99.90
698;DHT22;331;48.414;9.938;2022-11-15T03:47:18;8.00;99.90
698;DHT22;331;48.414;9.938;2022-11-15T03:50:07;7.90;99.90
698;DHT22;331;48.414;9.938;2022-11-15T03:52:54;8.00;99.90
698;DHT22;331;48.414;9.938;2022-11-15T03:55:41;8.00;99.90
698;DHT22;331;48.414;9.938;2022-11-15T03:58:26;8.00;99.90
698;DHT22;331;48.414;9.938;2022-11-15T04:01:12;7.90;99.90
698;DHT22;331;48.414;9.938;2022-11-15T04:03:57;7.90;99.90
698;DHT22;331;48.414;9.938;2022-11-15T04:06:43;7.90;99.90
698;DHT22;331;48.414;9.938;2022-11-15T04:09:28;7.90;99.90
698;DHT22;331;48.414;9.938;2022-11-15T04:12:14;7.90;99.90
698;DHT22;331;48.414;9.938;2022-11-15T04:15:15;7.90;99.90
698;DHT22;331;48.414;9.938;2022-11-15T04:18:01;7.90;99.90
698;DHT22;331;48.414;9.938;2022-11-15T04:20:46;7.90;99.90
698;DHT22;331;48.414;9.938;2022-11-15T04:23:49;7.90;99.90
698;DHT22;331;48.414;9.938;2022-11-15T04:26:53;7.90;99.90
698;DHT22;331;48.414;9.938;2022-11-15T04:29:39;7.90;99.90
698;DHT22;331;48.414;9.938;2022-11-15T04:32:25;7.80;99.90
698;DHT22;331;48.414;9.938;2022-11-15T04:35:10;7.80;99.90
698;DHT22;331;48.414;9.938;2022-11-15T04:37:56;7.80;99.90
698;DHT22;331;48.414;9.938;2022-11-15T04:40:41;7.80;99.90
698;DHT22;331;48.414;9.938;2022-11-15T04:43:26;7.80;99.90
698;DHT22;331;48.414;9.938;2022-11-15T04:46:13;7.70;99.90
698;DHT22;331;48.414;9.938;2022-11-15T04:48:58;7.80;99.90
698;DHT22;331;48.414;9.938;2022-11-15T04:51:44;7.70;99.90
698;DHT22;331;48.414;9.938;2022-11-15T04:54:30;7.70;99.90
698;DHT22;331;48.414;9.938;2022-11-15T04:57:15;7.70;99.90
698;DHT22;331;48.414;9.938;2022-11-15T05:00:01;7.70;99.90
698;DHT22;331;48.414;9.938;2022-11-15T05:02:48;7.70;99.90
698;DHT22;331;48.414;9.938;2022-11-15T05:05:50;7.70;99.90
698;DHT22;331;48.414;9.938;2022-11-15T05:08:36;7.70;99.90
698;DHT22;331;48.414;9.938;2022-11-15T05:11:21;7.70;99.90
698;DHT22;331;48.414;9.938;2022-11-15T05:14:06;7.70;99.90
698;DHT22;331;48.414;9.938;2022-11-15T05:16:52;7.70;99.90
698;DHT22;331;48.414;9.938;2022-11-15T05:19:38;7.60;99.90
698;DHT22;331;48.414;9.938;2022-11-15T05:22:23;7.70;99.90
698;DHT22;331;48.414;9.938;2022-11-15T05:25:09;7.70;99.90
698;DHT22;331;48.414;9.938;2022-11-15T05:27:54;7.70;99.90
698;DHT22;331;48.414;9.938;2022-11-15T05:30:40;7.70;99.90
698;DHT22;331;48.414;9.938;2022-11-15T05:33:25;7.70;99.90
698;DHT22;331;48.414;9.938;2022-11-15T05:36:13;7.70;99.90
698;DHT22;331;48.414;9.938;2022-11-15T05:38:59;7.70;99.90
698;DHT22;331;48.414;9.938;2022-11-15T05:41:45;7.80;99.90
698;DHT22;331;48.414;9.938;2022-11-15T05:44:31;7.70;99.90
698;DHT22;331;48.414;9.938;2022-11-15T05:47:18;7.70;99.90
698;DHT22;331;48.414;9.938;2022-11-15T05:50:06;7.70;99.90
698;DHT22;331;48.414;9.938;2022-11-15T05:52:53;7.80;99.90
698;DHT22;331;48.414;9.938;2022-11-15T05:55:39;7.70;99.90
698;DHT22;331;48.414;9.938;2022-11-15T05:58:25;7.70;99.90
698;DHT22;331;48.414;9.938;2022-11-15T06:01:10;7.80;99.90
698;DHT22;331;48.414;9.938;2022-11-15T06:03:56;7.80;99.90
698;DHT22;331;48.414;9.938;2022-11-15T06:06:41;7.70;99.90
698;DHT22;331;48.414;9.938;2022-11-15T06:09:28;7.70;99.90
698;DHT22;331;48.414;9.938;2022-11-15T06:12:13;7.70;99.90
698;DHT22;331;48.414;9.938;2022-11-15T06:14:58;7.70;99.90
698;DHT22;331;48.414;9.938;2022-11-15T06:17:44;7.70;99.90
698;DHT22;331;48.414;9.938;2022-11-15T06:20:29;7.70;99.90
698;DHT22;331;48.414;9.938;2022-11-15T06:23:14;7.70;99.90
698;DHT22;331;48.414;9.938;2022-11-15T06:26:01;7.70;99.90
698;DHT22;331;48.414;9.938;2022-11-15T06:28:47;7.70;99.90
698;DHT22;331;48.414;9.938;2022-11-15T06:31:33;7.70;99.90
698;DHT22;331;48.414;9.938;2022-11-15T06:34:18;7.70;99.90
698;DHT22;331;48.414;9.938;2022-11-15T06:37:03;7.70;99.90
698;DHT22;331;48.414;9.938;2022-11-15T06:39:48;7.70;99.90
698;DHT22;331;48.414;9.938;2022-11-15T06:42:35;7.70;99.90
698;DHT22;331;48.414;9.938;2022-11-15T06:45:20;7.60;99.90
698;DHT22;331;48.414;9.938;2022-11-15T06:48:06;7.70;99.90
698;DHT22;331;48.414;9.938;2022-11-15T06:50:51;7.70;99.90
698;DHT22;331;48.414;9.938;2022-11-15T06:53:37;7.70;99.90
698;DHT22;331;48.414;9.938;2022-11-15T06:56:22;7.70;99.90
698;DHT22;331;48.414;9.938;2022-11-15T06:59:09;7.70;99.90
698;DHT22;331;48.414;9.938;2022-11-15T07:01:54;7.70;99.90
698;DHT22;331;48.414;9.938;2022-11-15T07:04:39;7.70;99.90
698;DHT22;331;48.414;9.938;2022-11-15T07:07:24;7.70;99.90
698;DHT22;331;48.414;9.938;2022-11-15T07:10:10;7.70;99.90
698;DHT22;331;48.414;9.938;2022-11-15T07:12:56;7.70;99.90
698;DHT22;331;48.414;9.938;2022-11-15T07:15:42;7.70;99.90
698;DHT22;331;48.414;9.938;2022-11-15T07:18:28;7.60;99.90
698;DHT22;331;48.414;9.938;2022-11-15T07:21:14;7.70;99.90
698;DHT22;331;48.414;9.938;2022-11-15T07:23:59;7.70;99.90
698;DHT22;331;48.414;9.938;2022-11-15T07:26:44;7.60;99.90
698;DHT22;331;48.414;9.938;2022-11-15T07:29:29;7.70;99.90
698;DHT22;331;48.414;9.938;2022-11-15T07:32:15;7.60;99.90
698;DHT22;331;48.414;9.938;2022-11-15T07:35:01;7.60;99.90
698;DHT22;331;48.414;9.938;2022-11-15T07:37:52;7.60;99.90
698;DHT22;331;48.414;9.938;2022-11-15T07:40:38;7.60;99.90
698;DHT22;331;48.414;9.938;2022-11-15T07:43:23;7.60;99.90
698;DHT22;331;48.414;9.938;2022-11-15T07:46:08;7.50;99.90
698;DHT22;331;48.414;9.938;2022-11-15T07:48:55;7.60;99.90
698;DHT22;331;48.414;9.938;2022-11-15T07:51:40;7.60;99.90
698;DHT22;331;48.414;9.938;2022-11-15T07:54:25;7.60;99.90
698;DHT22;331;48.414;9.938;2022-11-15T07:57:10;7.60;99.90
698;DHT22;331;48.414;9.938;2022-11-15T07:59:55;7.60;99.90
698;DHT22;331;48.414;9.938;2022-11-15T08:02:41;7.60;99.90
698;DHT22;331;48.414;9.938;2022-11-15T08:05:42;7.60;99.90
698;DHT22;331;48.414;9.938;2022-11-15T08:08:27;7.50;99.90
698;DHT22;331;48.414;9.938;2022-11-15T08:11:13;7.60;99.90
698;DHT22;331;48.414;9.938;2022-11-15T08:13:58;7.60;99.90
698;DHT22;331;48.414;9.938;2022-11-15T08:16:44;7.50;99.90
698;DHT22;331;48.414;9.938;2022-11-15T08:19:30;7.50;99.90
698;DHT22;331;48.414;9.938;2022-11-15T08:22:17;7.50;99.90
698;DHT22;331;48.414;9.938;2022-11-15T08:25:02;7.50;99.90
698;DHT22;331;48.414;9.938;2022-11-15T08:27:50;7.50;99.90
698;DHT22;331;48.414;9.938;2022-11-15T08:30:36;7.50;99.90
698;DHT22;331;48.414;9.938;2022-11-15T08:33:26;7.50;99.90
698;DHT22;331;48.414;9.938;2022-11-15T08:36:13;7.50;99.90
698;DHT22;331;48.414;9.938;2022-11-15T08:39:00;7.50;99.90
698;DHT22;331;48.414;9.938;2022-11-15T08:41:45;7.50;99.90
698;DHT22;331;48.414;9.938;2022-11-15T08:44:30;7.50;99.90
698;DHT22;331;48.414;9.938;2022-11-15T08:47:15;7.50;99.90
698;DHT22;331;48.414;9.938;2022-11-15T08:50:00;7.50;99.90
698;DHT22;331;48.414;9.938;2022-11-15T08:52:45;7.50;99.90
698;DHT22;331;48.414;9.938;2022-11-15T08:55:35;7.50;99.90
698;DHT22;331;48.414;9.938;2022-11-15T08:58:21;7.50;99.90
698;DHT22;331;48.414;9.938;2022-11-15T09:01:06;7.50;99.90
698;DHT22;331;48.414;9.938;2022-11-15T09:03:51;7.50;99.90
698;DHT22;331;48.414;9.938;2022-11-15T09:06:37;7.50;99.90
698;DHT22;331;48.414;9.938;2022-11-15T09:09:23;7.40;99.90
698;DHT22;331;48.414;9.938;2022-11-15T09:12:10;7.50;99.90
698;DHT22;331;48.414;9.938;2022-11-15T09:14:55;7.40;99.90
698;DHT22;331;48.414;9.938;2022-11-15T09:17:40;7.40;99.90
698;DHT22;331;48.414;9.938;2022-11-15T09:20:26;7.40;99.90
698;DHT22;331;48.414;9.938;2022-11-15T09:23:11;7.50;99.90
698;DHT22;331;48.414;9.938;2022-11-15T09:26:00;7.50;99.90
698;DHT22;331;48.414;9.938;2022-11-15T09:28:48;7.50;99.90
698;DHT22;331;48.414;9.938;2022-11-15T09:31:33;7.40;99.90
698;DHT22;331;48.414;9.938;2022-11-15T09:34:18;7.50;99.90
698;DHT22;331;48.414;9.938;2022-11-15T09:37:04;7.50;99.90
698;DHT22;331;48.414;9.938;2022-11-15T09:39:49;7.50;99.90
698;DHT22;331;48.414;9.938;2022-11-15T09:42:39;7.50;99.90
698;DHT22;331;48.414;9.938;2022-11-15T09:45:31;7.50;99.90
698;DHT22;331;48.414;9.938;2022-11-15T09:48:26;7.50;99.90
698;DHT22;331;48.414;9.938;2022-11-15T09:51:35;7.50;99.90
698;DHT22;331;48.414;9.938;2022-11-15T09:54:13;7.50;99.90
698;DHT22;331;48.414;9.938;2022-11-15T09:56:43;7.50;99.90
698;DHT22;331;48.414;9.938;2022-11-15T09:59:18;7.50;99.90
698;DHT22;331;48.414;9.938;2022-11-15T10:01:49;7.50;99.90
698;DHT22;331;48.414;9.938;2022-11-15T10:04:20;7.60;99.90
698;DHT22;331;48.414;9.938;2022-11-15T10:06:49;7.50;99.90
698;DHT22;331;48.414;9.938;2022-11-15T10:09:19;7.50;99.90
698;DHT22;331;48.414;9.938;2022-11-15T10:11:48;7.50;99.90
698;DHT22;331;48.414;9.938;2022-11-15T10:14:17;7.50;99.90
698;DHT22;331;48.414;9.938;2022-11-15T10:16:59;7.60;99.90
698;DHT22;331;48.414;9.938;2022-11-15T10:19:28;7.60;99.90
698;DHT22;331;48.414;9.938;2022-11-15T10:22:02;7.60;99.90
698;DHT22;331;48.414;9.938;2022-11-15T10:24:34;7.60;99.90
698;DHT22;331;48.414;9.938;2022-11-15T10:27:01;7.60;99.90
698;DHT22;331;48.414;9.938;2022-11-15T10:29:28;7.60;99.90
698;DHT22;331;48.414;9.938;2022-11-15T10:31:54;7.60;99.90
698;DHT22;331;48.414;9.938;2022-11-15T10:34:23;7.70;99.90
698;DHT22;331;48.414;9.938;2022-11-15T10:36:54;7.70;99.90
698;DHT22;331;48.414;9.938;2022-11-15T10:39:21;7.70;99.90
698;DHT22;331;48.414;9.938;2022-11-15T10:41:47;7.60;99.90
698;DHT22;331;48.414;9.938;2022-11-15T10:47:07;7.70;99.90
698;DHT22;331;48.414;9.938;2022-11-15T10:49:54;7.70;99.90
698;DHT22;331;48.414;9.938;2022-11-15T10:52:21;7.70;99.90
698;DHT22;331;48.414;9.938;2022-11-15T10:54:50;7.70;99.90
698;DHT22;331;48.414;9.938;2022-11-15T10:57:18;7.70;99.90
698;DHT22;331;48.414;9.938;2022-11-15T10:59:46;7.70;99.90
698;DHT22;331;48.414;9.938;2022-11-15T11:05:24;7.80;99.90
698;DHT22;331;48.414;9.938;2022-11-15T11:07:54;7.80;99.90
698;DHT22;331;48.414;9.938;2022-11-15T11:10:22;7.80;99.90
698;DHT22;331;48.414;9.938;2022-11-15T11:12:49;7.80;99.90
698;DHT22;331;48.414;9.938;2022-11-15T11:15:16;7.90;99.90
698;DHT22;331;48.414;9.938;2022-11-15T11:17:49;7.90;99.90
698;DHT22;331;48.414;9.938;2022-11-15T11:20:20;7.90;99.90
698;DHT22;331;48.414;9.938;2022-11-15T11:22:55;7.90;99.90
698;DHT22;331;48.414;9.938;2022-11-15T11:25:28;7.90;99.90
698;DHT22;331;48.414;9.938;2022-11-15T11:27:59;7.90;99.90
698;DHT22;331;48.414;9.938;2022-11-15T11:30:31;7.90;99.90
698;DHT22;331;48.414;9.938;2022-11-15T11:33:03;8.00;99.90
698;DHT22;331;48.414;9.938;2022-11-15T11:35:34;8.00;99.90
698;DHT22;331;48.414;9.938;2022-11-15T11:38:11;8.00;99.90
698;DHT22;331;48.414;9.938;2022-11-15T11:40:43;8.00;99.90
698;DHT22;331;48.414;9.938;2022-11-15T11:43:12;8.00;99.90
698;DHT22;331;48.414;9.938;2022-11-15T11:45:47;8.10;99.90
698;DHT22;331;48.414;9.938;2022-11-15T11:48:20;8.10;99.90
698;DHT22;331;48.414;9.938;2022-11-15T11:50:51;8.10;99.90
698;DHT22;331;48.414;9.938;2022-11-15T11:53:25;8.10;99.90
698;DHT22;331;48.414;9.938;2022-11-15T11:55:53;8.10;99.90
698;DHT22;331;48.414;9.938;2022-11-15T11:58:25;8.10;99.90
698;DHT22;331;48.414;9.938;2022-11-15T12:00:55;8.10;99.90
698;DHT22;331;48.414;9.938;2022-11-15T12:03:24;8.10;99.90
698;DHT22;331;48.414;9.938;2022-11-15T12:05:54;8.20;99.90
698;DHT22;331;48.414;9.938;2022-11-15T12:08:27;8.20;99.90
698;DHT22;331;48.414;9.938;2022-11-15T12:10:57;8.20;99.90
698;DHT22;331;48.414;9.938;2022-11-15T12:13:26;8.20;99.90
698;DHT22;331;48.414;9.938;2022-11-15T12:15:59;8.30;99.90
698;DHT22;331;48.414;9.938;2022-11-15T12:18:27;8.30;99.90
698;DHT22;331;48.414;9.938;2022-11-15T12:20:56;8.30;99.90
698;DHT22;331;48.414;9.938;2022-11-15T12:23:25;8.30;99.90
698;DHT22;331;48.414;9.938;2022-11-15T12:25:55;8.30;99.90
698;DHT22;331;48.414;9.938;2022-11-15T12:28:24;8.30;99.90
698;DHT22;331;48.414;9.938;2022-11-15T12:30:56;8.40;99.90
698;DHT22;331;48.414;9.938;2022-11-15T12:33:28;8.40;99.90
698;DHT22;331;48.414;9.938;2022-11-15T12:35:59;8.40;99.90
698;DHT22;331;48.414;9.938;2022-11-15T12:41:12;8.40;99.90
698;DHT22;331;48.414;9.938;2022-11-15T12:43:40;8.50;99.90
698;DHT22;331;48.414;9.938;2022-11-15T12:46:10;8.50;99.90
698;DHT22;331;48.414;9.938;2022-11-15T12:59:50;8.60;99.90
698;DHT22;331;48.414;9.938;2022-11-15T13:02:18;8.60;99.90
698;DHT22;331;48.414;9.938;2022-11-15T13:04:46;8.70;99.90
698;DHT22;331;48.414;9.938;2022-11-15T13:07:54;8.70;99.90
698;DHT22;331;48.414;9.938;2022-11-15T13:12:56;8.70;99.90
698;DHT22;331;48.414;9.938;2022-11-15T13:21:21;8.80;99.90
698;DHT22;331;48.414;9.938;2022-11-15T13:24:10;8.80;99.90
698;DHT22;331;48.414;9.938;2022-11-15T13:26:38;8.80;99.90
698;DHT22;331;48.414;9.938;2022-11-15T13:29:12;8.90;99.90
698;DHT22;331;48.414;9.938;2022-11-15T13:31:41;8.90;99.90
698;DHT22;331;48.414;9.938;2022-11-15T13:34:25;8.90;99.90
698;DHT22;331;48.414;9.938;2022-11-15T13:36:54;9.00;99.90
698;DHT22;331;48.414;9.938;2022-11-15T13:39:25;9.00;99.90
698;DHT22;331;48.414;9.938;2022-11-15T13:41:52;9.00;99.90
698;DHT22;331;48.414;9.938;2022-11-15T13:44:20;9.00;99.90
698;DHT22;331;48.414;9.938;2022-11-15T13:46:47;9.00;99.90
698;DHT22;331;48.414;9.938;2022-11-15T13:49:14;9.10;99.90
698;DHT22;331;48.414;9.938;2022-11-15T13:51:42;9.10;99.90
698;DHT22;331;48.414;9.938;2022-11-15T13:54:14;9.10;99.90
698;DHT22;331;48.414;9.938;2022-11-15T13:56:43;9.10;99.90
698;DHT22;331;48.414;9.938;2022-11-15T13:59:13;9.10;99.90
698;DHT22;331;48.414;9.938;2022-11-15T14:01:41;9.10;99.90
698;DHT22;331;48.414;9.938;2022-11-15T14:04:09;9.10;99.90
698;DHT22;331;48.414;9.938;2022-11-15T14:06:43;9.10;99.90
698;DHT22;331;48.414;9.938;2022-11-15T14:09:28;9.20;99.90
698;DHT22;331;48.414;9.938;2022-11-15T14:11:56;9.20;99.90
698;DHT22;331;48.414;9.938;2022-11-15T14:14:23;9.20;99.90
698;DHT22;331;48.414;9.938;2022-11-15T14:16:51;9.20;99.90
698;DHT22;331;48.414;9.938;2022-11-15T14:19:35;9.20;99.90
698;DHT22;331;48.414;9.938;2022-11-15T14:22:19;9.20;99.90
698;DHT22;331;48.414;9.938;2022-11-15T14:25:03;9.30;99.90
698;DHT22;331;48.414;9.938;2022-11-15T14:27:31;9.30;99.90
698;DHT22;331;48.414;9.938;2022-11-15T14:29:59;9.30;99.90
698;DHT22;331;48.414;9.938;2022-11-15T14:32:26;9.30;99.90
698;DHT22;331;48.414;9.938;2022-11-15T14:34:54;9.30;99.90
698;DHT22;331;48.414;9.938;2022-11-15T14:37:22;9.30;99.90
698;DHT22;331;48.414;9.938;2022-11-15T14:39:50;9.30;99.90
698;DHT22;331;48.414;9.938;2022-11-15T14:42:17;9.30;99.90
698;DHT22;331;48.414;9.938;2022-11-15T14:44:45;9.30;99.90
698;DHT22;331;48.414;9.938;2022-11-15T14:47:12;9.30;99.90
698;DHT22;331;48.414;9.938;2022-11-15T14:49:39;9.30;99.90
698;DHT22;331;48.414;9.938;2022-11-15T14:52:22;9.40;99.90
698;DHT22;331;48.414;9.938;2022-11-15T14:54:51;9.40;99.90
698;DHT22;331;48.414;9.938;2022-11-15T14:57:18;9.40;99.90
698;DHT22;331;48.414;9.938;2022-11-15T14:59:45;9.40;99.90
698;DHT22;331;48.414;9.938;2022-11-15T15:02:14;9.40;99.90
698;DHT22;331;48.414;9.938;2022-11-15T15:04:43;9.40;99.90
698;DHT22;331;48.414;9.938;2022-11-15T15:07:10;9.40;99.90
698;DHT22;331;48.414;9.938;2022-11-15T15:09:37;9.40;99.90
698;DHT22;331;48.414;9.938;2022-11-15T15:12:08;9.40;99.90
698;DHT22;331;48.414;9.938;2022-11-15T15:14:38;9.40;99.90
698;DHT22;331;48.414;9.938;2022-11-15T15:17:05;9.40;99.90
698;DHT22;331;48.414;9.938;2022-11-15T15:19:32;9.50;99.90
698;DHT22;331;48.414;9.938;2022-11-15T15:21:58;9.50;99.90
698;DHT22;331;48.414;9.938;2022-11-15T15:24:25;9.60;99.90
698;DHT22;331;48.414;9.938;2022-11-15T15:26:52;9.60;99.90
698;DHT22;331;48.414;9.938;2022-11-15T15:29:20;9.60;99.90
698;DHT22;331;48.414;9.938;2022-11-15T15:31:47;9.60;99.90
698;DHT22;331;48.414;9.938;2022-11-15T15:34:14;9.70;99.90
698;DHT22;331;48.414;9.938;2022-11-15T15:36:41;9.60;99.90
698;DHT22;331;48.414;9.938;2022-11-15T15:39:08;9.60;99.90
698;DHT22;331;48.414;9.938;2022-11-15T15:41:37;9.60;99.90
698;DHT22;331;48.414;9.938;2022-11-15T15:44:03;9.60;99.90
698;DHT22;331;48.414;9.938;2022-11-15T15:46:32;9.60;99.90
698;DHT22;331;48.414;9.938;2022-11-15T15:49:00;9.60;99.90
698;DHT22;331;48.414;9.938;2022-11-15T15:51:27;9.60;99.90
698;DHT22;331;48.414;9.938;2022-11-15T15:53:54;9.60;99.90
698;DHT22;331;48.414;9.938;2022-11-15T15:56:22;9.60;99.90
698;DHT22;331;48.414;9.938;2022-11-15T15:58:49;9.60;99.90
698;DHT22;331;48.414;9.938;2022-11-15T16:01:18;9.60;99.90
698;DHT22;331;48.414;9.938;2022-11-15T16:03:46;9.60;99.90
698;DHT22;331;48.414;9.938;2022-11-15T16:09:11;9.60;99.90
698;DHT22;331;48.414;9.938;2022-11-15T16:11:38;9.60;99.90
698;DHT22;331;48.414;9.938;2022-11-15T16:14:05;9.60;99.90
698;DHT22;331;48.414;9.938;2022-11-15T16:16:32;9.60;99.90
698;DHT22;331;48.414;9.938;2022-11-15T16:19:01;9.60;99.90
698;DHT22;331;48.414;9.938;2022-11-15T16:21:27;9.60;99.90
698;DHT22;331;48.414;9.938;2022-11-15T16:23:54;9.60;99.90
698;DHT22;331;48.414;9.938;2022-11-15T16:26:22;9.60;99.90
698;DHT22;331;48.414;9.938;2022-11-15T16:28:49;9.60;99.90
698;DHT22;331;48.414;9.938;2022-11-15T16:31:16;9.60;99.90
698;DHT22;331;48.414;9.938;2022-11-15T16:33:45;9.60;99.90
698;DHT22;331;48.414;9.938;2022-11-15T16:36:20;9.60;99.90
698;DHT22;331;48.414;9.938;2022-11-15T16:38:47;9.60;99.90
698;DHT22;331;48.414;9.938;2022-11-15T16:41:14;9.60;99.90
698;DHT22;331;48.414;9.938;2022-11-15T16:43:43;9.60;99.90
698;DHT22;331;48.414;9.938;2022-11-15T16:46:12;9.60;99.90
698;DHT22;331;48.414;9.938;2022-11-15T16:48:40;9.60;99.90
698;DHT22;331;48.414;9.938;2022-11-15T16:51:07;9.60;99.90
698;DHT22;331;48.414;9.938;2022-11-15T16:53:36;9.60;99.90
698;DHT22;331;48.414;9.938;2022-11-15T16:56:08;9.60;99.90
698;DHT22;331;48.414;9.938;2022-11-15T16:58:39;9.60;99.90
698;DHT22;331;48.414;9.938;2022-11-15T17:01:10;9.60;99.90
698;DHT22;331;48.414;9.938;2022-11-15T17:03:37;9.60;99.90
698;DHT22;331;48.414;9.938;2022-11-15T17:06:04;9.60;99.90
698;DHT22;331;48.414;9.938;2022-11-15T17:08:31;9.60;99.90
698;DHT22;331;48.414;9.938;2022-11-15T17:10:59;9.60;99.90
698;DHT22;331;48.414;9.938;2022-11-15T17:13:26;9.60;99.90
698;DHT22;331;48.414;9.938;2022-11-15T17:16:02;9.60;99.90
698;DHT22;331;48.414;9.938;2022-11-15T17:18:29;9.60;99.90
698;DHT22;331;48.414;9.938;2022-11-15T17:20:55;9.60;99.90
698;DHT22;331;48.414;9.938;2022-11-15T17:23:22;9.60;99.90
698;DHT22;331;48.414;9.938;2022-11-15T17:25:57;9.60;99.90
698;DHT22;331;48.414;9.938;2022-11-15T17:28:25;9.60;99.90
698;DHT22;331;48.414;9.938;2022-11-15T17:30:52;9.60;99.90
698;DHT22;331;48.414;9.938;2022-11-15T17:33:19;9.60;99.90
698;DHT22;331;48.414;9.938;2022-11-15T17:35:46;9.60;99.90
698;DHT22;331;48.414;9.938;2022-11-15T17:38:20;9.60;99.90
698;DHT22;331;48.414;9.938;2022-11-15T17:40:47;9.60;99.90
698;DHT22;331;48.414;9.938;2022-11-15T17:43:13;9.60;99.90
698;DHT22;331;48.414;9.938;2022-11-15T17:45:42;9.60;99.90
698;DHT22;331;48.414;9.938;2022-11-15T17:48:09;9.60;99.90
698;DHT22;331;48.414;9.938;2022-11-15T17:50:36;9.60;99.90
698;DHT22;331;48.414;9.938;2022-11-15T17:53:03;9.60;99.90
698;DHT22;331;48.414;9.938;2022-11-15T17:55:31;9.60;99.90
698;DHT22;331;48.414;9.938;2022-11-15T17:57:58;9.60;99.90
698;DHT22;331;48.414;9.938;2022-11-15T18:00:25;9.60;99.90
698;DHT22;331;48.414;9.938;2022-11-15T18:02:53;9.60;99.90
698;DHT22;331;48.414;9.938;2022-11-15T18:05:22;9.60;99.90
698;DHT22;331;48.414;9.938;2022-11-15T18:07:49;9.60;99.90
698;DHT22;331;48.414;9.938;2022-11-15T18:10:16;9.60;99.90
698;DHT22;331;48.414;9.938;2022-11-15T18:12:43;9.60;99.90
698;DHT22;331;48.414;9.938;2022-11-15T18:15:09;9.60;99.90
698;DHT22;331;48.414;9.938;2022-11-15T18:17:36;9.60;99.90
698;DHT22;331;48.414;9.938;2022-11-15T18:20:05;9.60;99.90
698;DHT22;331;48.414;9.938;2022-11-15T18:22:32;9.60;99.90
698;DHT22;331;48.414;9.938;2022-11-15T18:24:59;9.60;99.90
698;DHT22;331;48.414;9.938;2022-11-15T18:27:26;9.60;99.90
698;DHT22;331;48.414;9.938;2022-11-15T18:29:52;9.60;99.90
698;DHT22;331;48.414;9.938;2022-11-15T18:32:19;9.60;99.90
698;DHT22;331;48.414;9.938;2022-11-15T18:34:46;9.60;99.90
698;DHT22;331;48.414;9.938;2022-11-15T18:37:14;9.60;99.90
698;DHT22;331;48.414;9.938;2022-11-15T18:39:41;9.60;99.90
698;DHT22;331;48.414;9.938;2022-11-15T18:42:08;9.60;99.90
698;DHT22;331;48.414;9.938;2022-11-15T18:44:35;9.60;99.90